createdAt,value
2023-02-15T00:01:21.172Z,3.70
2023-02-15T00:03:57.547Z,3.70
2023-02-15T00:06:35.070Z,3.70
2023-02-15T00:09:12.556Z,3.70
2023-02-15T00:11:52.093Z,3.70
2023-02-15T00:14:29.634Z,3.70
2023-02-15T00:17:06.175Z,3.70
2023-02-15T00:19:42.511Z,3.70
2023-02-15T00:22:18.712Z,3.70
2023-02-15T00:24:55.023Z,3.70
2023-02-15T00:27:31.622Z,3.70
2023-02-15T00:30:10.010Z,3.66
2023-02-15T00:32:46.370Z,3.60
2023-02-15T00:35:22.897Z,3.60
2023-02-15T00:37:59.560Z,3.60
2023-02-15T00:40:35.879Z,3.60
2023-02-15T00:43:12.121Z,3.60
2023-02-15T00:45:53.768Z,3.60
2023-02-15T00:48:30.758Z,3.60
2023-02-15T00:51:07.388Z,3.60
2023-02-15T00:53:43.851Z,3.60
2023-02-15T00:56:20.322Z,3.60
2023-02-15T00:58:56.654Z,3.60
2023-02-15T01:01:33.000Z,3.60
2023-02-15T01:04:10.251Z,3.58
2023-02-15T01:06:46.703Z,3.54
2023-02-15T01:09:23.425Z,3.60
2023-02-15T01:11:59.852Z,3.60
2023-02-15T01:14:36.542Z,3.60
2023-02-15T01:17:14.854Z,3.60
2023-02-15T01:19:52.369Z,3.54
2023-02-15T01:22:29.158Z,3.52
2023-02-15T01:25:05.928Z,3.50
2023-02-15T01:27:42.238Z,3.50
2023-02-15T01:30:20.707Z,3.50
2023-02-15T01:32:58.359Z,3.50
2023-02-15T01:35:35.247Z,3.50
2023-02-15T01:38:11.596Z,3.50
2023-02-15T01:40:47.953Z,3.50
2023-02-15T01:43:40.904Z,3.50
2023-02-15T01:46:21.312Z,3.50
2023-02-15T01:49:11.078Z,3.50
2023-02-15T01:51:53.561Z,3.50
2023-02-15T01:54:36.970Z,3.40
2023-02-15T01:57:21.712Z,3.40
2023-02-15T02:00:04.051Z,3.40
2023-02-15T02:02:56.215Z,3.40
2023-02-15T02:05:36.444Z,3.30
2023-02-15T02:08:14.268Z,3.30
2023-02-15T02:10:50.672Z,3.30
2023-02-15T02:13:27.144Z,3.30
2023-02-15T02:16:13.852Z,3.22
2023-02-15T02:19:12.291Z,3.20
2023-02-15T02:22:52.439Z,3.20
2023-02-15T02:26:43.126Z,3.20
2023-02-15T02:30:38.293Z,3.20
2023-02-15T02:33:56.368Z,3.10
2023-02-15T02:36:48.530Z,3.10
2023-02-15T02:39:44.825Z,3.10
2023-02-15T02:42:34.545Z,3.10
2023-02-15T02:45:18.846Z,3.10
2023-02-15T02:48:03.129Z,3.10
2023-02-15T02:50:43.195Z,3.10
2023-02-15T02:53:19.667Z,3.10
2023-02-15T02:56:01.843Z,3.10
2023-02-15T02:58:48.315Z,3.10
2023-02-15T03:01:34.222Z,3.10
2023-02-15T03:04:16.532Z,3.10
2023-02-15T03:06:57.503Z,3.10
2023-02-15T03:09:43.639Z,3.10
2023-02-15T03:12:26.668Z,3.10
2023-02-15T03:15:12.131Z,3.10
2023-02-15T03:17:55.473Z,3.10
2023-02-15T03:20:38.890Z,3.10
2023-02-15T03:23:24.122Z,3.10
2023-02-15T03:26:08.472Z,3.10
2023-02-15T03:28:52.071Z,3.10
2023-02-15T03:31:34.077Z,3.10
2023-02-15T03:34:15.348Z,3.10
2023-02-15T03:37:01.948Z,3.10
2023-02-15T03:39:45.444Z,3.10
2023-02-15T03:42:31.847Z,3.10
2023-02-15T03:45:16.916Z,3.08
2023-02-15T03:47:58.070Z,3.06
2023-02-15T03:50:55.910Z,3.00
2023-02-15T03:53:32.898Z,3.00
2023-02-15T03:56:09.659Z,2.90
2023-02-15T03:59:03.349Z,2.90
2023-02-15T04:02:01.866Z,2.90
2023-02-15T04:04:48.387Z,2.82
2023-02-15T04:07:25.184Z,2.80
2023-02-15T04:10:18.672Z,2.80
2023-02-15T04:12:54.985Z,2.80
2023-02-15T04:15:49.285Z,2.80
2023-02-15T04:18:43.450Z,2.80
2023-02-15T04:21:37.789Z,2.80
2023-02-15T04:24:33.023Z,2.80
2023-02-15T04:27:10.181Z,2.80
2023-02-15T04:29:46.469Z,2.80
2023-02-15T04:32:22.992Z,2.80
2023-02-15T04:34:59.389Z,2.80
2023-02-15T04:37:35.666Z,2.80
2023-02-15T04:40:18.681Z,2.80
2023-02-15T04:42:55.905Z,2.80
2023-02-15T04:45:32.256Z,2.80
2023-02-15T04:48:09.726Z,2.80
2023-02-15T04:50:46.389Z,2.80
2023-02-15T04:53:22.869Z,2.80
2023-02-15T04:55:59.569Z,2.80
2023-02-15T04:58:36.278Z,2.80
2023-02-15T05:01:13.277Z,2.80
2023-02-15T05:03:49.849Z,2.80
2023-02-15T05:06:26.749Z,2.80
2023-02-15T05:09:03.217Z,2.80
2023-02-15T05:11:39.515Z,2.80
2023-02-15T05:14:15.847Z,2.76
2023-02-15T05:16:52.174Z,2.78
2023-02-15T05:19:28.825Z,2.74
2023-02-15T05:22:05.111Z,2.70
2023-02-15T05:24:59.126Z,2.70
2023-02-15T05:27:53.172Z,2.70
2023-02-15T05:30:30.274Z,2.70
2023-02-15T05:33:06.959Z,2.70
2023-02-15T05:35:43.851Z,2.70
2023-02-15T05:38:20.140Z,2.70
2023-02-15T05:40:57.989Z,2.70
2023-02-15T05:43:34.969Z,2.70
2023-02-15T05:46:12.294Z,2.70
2023-02-15T05:48:48.600Z,2.70
2023-02-15T05:51:25.300Z,2.70
2023-02-15T05:54:01.518Z,2.66
2023-02-15T05:56:37.721Z,2.64
2023-02-15T05:59:14.378Z,2.70
2023-02-15T06:01:50.647Z,2.66
2023-02-15T06:04:27.211Z,2.70
2023-02-15T06:07:03.703Z,2.70
2023-02-15T06:09:40.153Z,2.70
2023-02-15T06:12:16.431Z,2.70
2023-02-15T06:14:52.807Z,2.72
2023-02-15T06:17:29.498Z,2.70
2023-02-15T06:20:07.935Z,2.72
2023-02-15T06:22:44.401Z,2.80
2023-02-15T06:25:22.021Z,2.80
2023-02-15T06:27:58.361Z,2.80
2023-02-15T06:30:35.602Z,2.70
2023-02-15T06:33:11.850Z,2.70
2023-02-15T06:35:48.612Z,2.70
2023-02-15T06:38:24.944Z,2.70
2023-02-15T06:41:01.384Z,2.70
2023-02-15T06:43:39.987Z,2.70
2023-02-15T06:46:17.315Z,2.70
2023-02-15T06:48:53.852Z,2.70
2023-02-15T06:51:30.173Z,2.72
2023-02-15T06:54:06.727Z,2.80
2023-02-15T06:56:43.248Z,2.80
2023-02-15T06:59:19.958Z,2.80
2023-02-15T07:01:56.556Z,2.80
2023-02-15T07:04:32.941Z,2.80
2023-02-15T07:07:12.594Z,2.80
2023-02-15T07:09:48.963Z,2.80
2023-02-15T07:12:43.864Z,2.80
2023-02-15T07:15:23.170Z,2.80
2023-02-15T07:18:00.881Z,2.90
2023-02-15T07:20:37.964Z,2.90
2023-02-15T07:23:14.263Z,2.90
2023-02-15T07:25:50.592Z,3.00
2023-02-15T07:28:27.162Z,3.00
2023-02-15T07:31:04.965Z,3.00
2023-02-15T07:33:41.515Z,3.06
2023-02-15T07:36:17.822Z,3.10
2023-02-15T07:38:54.265Z,3.08
2023-02-15T07:41:30.530Z,3.10
2023-02-15T07:44:07.403Z,3.10
2023-02-15T07:46:44.145Z,3.10
2023-02-15T07:49:21.051Z,3.10
2023-02-15T07:51:57.531Z,3.10
2023-02-15T07:54:34.286Z,3.20
2023-02-15T07:57:10.667Z,3.20
2023-02-15T07:59:47.033Z,3.30
2023-02-15T08:02:23.616Z,3.30
2023-02-15T08:05:00.102Z,3.30
2023-02-15T08:07:36.799Z,3.34
2023-02-15T08:10:34.711Z,3.40
2023-02-15T08:13:11.101Z,3.40
2023-02-15T08:15:53.833Z,3.40
2023-02-15T08:18:30.260Z,3.40
2023-02-15T08:21:07.436Z,3.42
2023-02-15T08:23:43.707Z,3.50
2023-02-15T08:26:20.333Z,3.54
2023-02-15T08:28:57.527Z,3.60
2023-02-15T08:31:34.090Z,3.70
2023-02-15T08:34:12.575Z,3.80
2023-02-15T08:36:49.487Z,3.90
2023-02-15T08:39:26.275Z,3.98
2023-02-15T08:42:05.028Z,4.00
2023-02-15T08:44:41.755Z,4.10
2023-02-15T08:47:18.083Z,4.10
2023-02-15T08:49:55.065Z,4.10
2023-02-15T08:52:31.731Z,4.20
2023-02-15T08:55:09.444Z,4.30
2023-02-15T08:57:47.019Z,4.40
2023-02-15T09:00:26.163Z,4.50
2023-02-15T09:03:02.501Z,4.54
2023-02-15T09:05:39.006Z,4.60
2023-02-15T09:08:15.502Z,4.70
2023-02-15T09:10:51.777Z,4.78
2023-02-15T09:13:28.273Z,4.80
2023-02-15T09:16:11.399Z,4.80
2023-02-15T09:18:48.503Z,4.86
2023-02-15T09:21:27.530Z,5.00
2023-02-15T09:24:08.975Z,5.10
2023-02-15T09:26:50.157Z,5.20
2023-02-15T09:29:26.629Z,5.40
2023-02-15T09:32:02.917Z,5.42
2023-02-15T09:34:39.509Z,5.50
2023-02-15T09:37:15.740Z,5.60
2023-02-15T09:39:52.072Z,5.70
2023-02-15T09:43:00.385Z,5.80
2023-02-15T09:46:08.736Z,5.90
2023-02-15T09:48:54.557Z,5.90
2023-02-15T09:52:28.847Z,5.92
2023-02-15T09:55:27.062Z,6.00
2023-02-15T09:58:19.014Z,6.10
2023-02-15T10:01:07.485Z,6.10
2023-02-15T10:04:23.180Z,6.10
2023-02-15T10:07:12.908Z,6.10
2023-02-15T10:10:12.361Z,6.20
2023-02-15T10:13:20.258Z,6.20
2023-02-15T10:16:17.774Z,6.18
2023-02-15T10:19:06.998Z,6.10
2023-02-15T10:22:05.713Z,6.10
2023-02-15T10:25:14.783Z,6.02
2023-02-15T10:27:53.957Z,6.10
2023-02-15T10:30:42.485Z,6.00
2023-02-15T10:33:42.554Z,6.00
2023-02-15T10:36:50.240Z,6.00
2023-02-15T10:39:40.728Z,6.00
2023-02-15T10:42:32.906Z,6.00
2023-02-15T10:45:23.458Z,6.00
2023-02-15T10:48:24.893Z,6.00
2023-02-15T10:51:05.284Z,6.00
2023-02-15T10:54:08.958Z,6.00
2023-02-15T10:56:58.598Z,6.00
2023-02-15T11:00:00.693Z,6.00
2023-02-15T11:02:59.271Z,6.10
2023-02-15T11:05:57.331Z,6.06
2023-02-15T11:08:37.825Z,6.10
2023-02-15T11:11:22.911Z,6.16
2023-02-15T11:14:07.767Z,6.20
2023-02-15T11:16:52.662Z,6.20
2023-02-15T11:19:36.787Z,6.20
2023-02-15T11:22:17.763Z,6.20
2023-02-15T11:24:58.645Z,6.22
2023-02-15T11:27:37.193Z,6.20
2023-02-15T11:30:24.771Z,6.20
2023-02-15T11:33:07.700Z,6.30
2023-02-15T11:35:55.989Z,6.30
2023-02-15T11:38:36.576Z,6.34
2023-02-15T11:41:17.998Z,6.36
2023-02-15T11:44:07.167Z,6.40
2023-02-15T11:46:43.896Z,6.40
2023-02-15T11:49:36.268Z,6.46
2023-02-15T11:52:19.624Z,6.50
2023-02-15T11:54:57.348Z,6.50
2023-02-15T11:57:42.888Z,6.60
2023-02-15T12:00:36.889Z,6.60
2023-02-15T12:03:29.371Z,6.70
2023-02-15T12:06:15.329Z,6.70
2023-02-15T12:09:02.509Z,6.80
2023-02-15T12:11:46.035Z,6.80
2023-02-15T12:14:22.503Z,6.80
2023-02-15T12:17:00.732Z,6.90
2023-02-15T12:19:42.692Z,6.90
2023-02-15T12:22:30.465Z,6.90
2023-02-15T12:25:25.486Z,7.00
2023-02-15T12:28:02.134Z,7.00
2023-02-15T12:30:45.069Z,7.10
2023-02-15T12:33:34.824Z,7.10
2023-02-15T12:36:24.915Z,7.10
2023-02-15T12:39:30.144Z,7.10
2023-02-15T12:42:21.091Z,7.10
2023-02-15T12:45:23.235Z,7.10
2023-02-15T12:48:19.139Z,7.10
2023-02-15T12:51:11.601Z,7.10
2023-02-15T12:53:48.086Z,7.20
2023-02-15T12:56:31.480Z,7.18
2023-02-15T12:59:23.158Z,7.20
2023-02-15T13:02:04.179Z,7.20
2023-02-15T13:04:49.904Z,7.20
2023-02-15T13:07:33.067Z,7.20
2023-02-15T13:10:25.629Z,7.20
2023-02-15T13:13:04.075Z,7.22
2023-02-15T13:15:48.268Z,7.30
2023-02-15T13:18:36.470Z,7.30
2023-02-15T13:21:21.314Z,7.32
2023-02-15T13:24:04.892Z,7.40
2023-02-15T13:26:45.824Z,7.40
2023-02-15T13:29:30.113Z,7.40
2023-02-15T13:32:23.434Z,7.40
2023-02-15T13:35:06.424Z,7.40
2023-02-15T13:38:27.902Z,7.40
2023-02-15T13:41:13.599Z,7.40
2023-02-15T13:44:06.370Z,7.40
2023-02-15T13:47:08.026Z,7.40
2023-02-15T13:50:06.714Z,7.40
2023-02-15T13:52:59.166Z,7.40
2023-02-15T13:55:46.619Z,7.40
2023-02-15T13:58:57.267Z,7.40
2023-02-15T14:01:46.472Z,7.40
2023-02-15T14:05:00.764Z,7.40
2023-02-15T14:07:58.669Z,7.40
2023-02-15T14:10:59.709Z,7.40
2023-02-15T14:14:14.111Z,7.40
2023-02-15T14:17:07.062Z,7.40
2023-02-15T14:19:54.823Z,7.40
2023-02-15T14:22:41.991Z,7.40
2023-02-15T14:25:37.818Z,7.40
2023-02-15T14:28:24.920Z,7.34
2023-02-15T14:31:02.936Z,7.30
2023-02-15T14:33:49.619Z,7.30
2023-02-15T14:36:27.894Z,7.30
2023-02-15T14:39:42.893Z,7.30
2023-02-15T14:42:33.766Z,7.28
2023-02-15T14:45:27.403Z,7.30
2023-02-15T14:48:15.471Z,7.20
2023-02-15T14:50:53.336Z,7.20
2023-02-15T14:53:45.496Z,7.20
2023-02-15T14:56:34.480Z,7.12
2023-02-15T14:59:27.939Z,7.10
2023-02-15T15:02:19.405Z,7.10
2023-02-15T15:05:11.927Z,7.00
2023-02-15T15:07:54.830Z,7.00
2023-02-15T15:10:50.227Z,6.96
2023-02-15T15:14:05.219Z,6.90
2023-02-15T15:16:57.670Z,6.90
2023-02-15T15:20:09.398Z,6.80
2023-02-15T15:22:48.497Z,6.80
2023-02-15T15:25:50.047Z,6.70
2023-02-15T15:29:03.501Z,6.70
2023-02-15T15:31:57.829Z,6.60
2023-02-15T15:35:17.514Z,6.50
2023-02-15T15:38:56.459Z,6.40
2023-02-15T15:42:03.398Z,6.30
2023-02-15T15:45:26.905Z,6.20
2023-02-15T15:48:39.154Z,6.10
2023-02-15T15:51:22.547Z,6.00
2023-02-15T15:53:59.643Z,5.90
2023-02-15T15:56:39.653Z,5.80
2023-02-15T15:59:28.595Z,5.70
2023-02-15T16:02:16.551Z,5.60
2023-02-15T16:04:53.124Z,5.50
2023-02-15T16:07:31.954Z,5.40
2023-02-15T16:10:24.813Z,5.30
2023-02-15T16:13:01.164Z,5.22
2023-02-15T16:15:50.671Z,5.12
2023-02-15T16:18:30.995Z,5.08
2023-02-15T16:21:16.462Z,5.00
2023-02-15T16:24:45.775Z,4.90
2023-02-15T16:27:41.807Z,4.74
2023-02-15T16:30:45.602Z,4.60
2023-02-15T16:33:22.693Z,4.50
2023-02-15T16:36:04.378Z,4.40
2023-02-15T16:39:12.084Z,4.30
2023-02-15T16:41:49.534Z,4.20
2023-02-15T16:44:27.470Z,4.10
2023-02-15T16:47:04.788Z,4.00
2023-02-15T16:49:45.831Z,3.90
2023-02-15T16:52:27.790Z,3.80
2023-02-15T16:55:05.726Z,3.60
2023-02-15T16:57:47.417Z,3.50
2023-02-15T17:00:32.806Z,3.40
2023-02-15T17:03:25.241Z,3.40
2023-02-15T17:06:04.482Z,3.30
2023-02-15T17:08:48.210Z,3.20
2023-02-15T17:11:38.571Z,3.10
2023-02-15T17:14:42.135Z,3.06
2023-02-15T17:17:22.782Z,3.00
2023-02-15T17:20:00.544Z,2.90
2023-02-15T17:22:41.647Z,2.88
2023-02-15T17:25:34.105Z,2.80
2023-02-15T17:28:23.506Z,2.78
2023-02-15T17:31:01.957Z,2.70
2023-02-15T17:33:44.410Z,2.60
2023-02-15T17:36:25.373Z,2.60
2023-02-15T17:39:24.666Z,2.50
2023-02-15T17:42:00.914Z,2.40
2023-02-15T17:44:37.400Z,2.40
2023-02-15T17:47:21.673Z,2.30
2023-02-15T17:49:58.631Z,2.30
2023-02-15T17:52:38.378Z,2.20
2023-02-15T17:55:40.170Z,2.20
2023-02-15T17:58:20.196Z,2.10
2023-02-15T18:01:19.804Z,2.10
2023-02-15T18:04:15.185Z,2.00
2023-02-15T18:07:09.642Z,1.90
2023-02-15T18:10:03.607Z,1.90
2023-02-15T18:12:41.507Z,1.80
2023-02-15T18:15:17.990Z,1.80
2023-02-15T18:17:54.379Z,1.78
2023-02-15T18:20:37.312Z,1.70
2023-02-15T18:23:17.973Z,1.70
2023-02-15T18:25:54.398Z,1.70
2023-02-15T18:28:30.763Z,1.64
2023-02-15T18:31:07.844Z,1.60
2023-02-15T18:33:49.521Z,1.58
2023-02-15T18:36:32.709Z,1.50
2023-02-15T18:39:25.564Z,1.42
2023-02-15T18:42:03.384Z,1.40
2023-02-15T18:44:39.761Z,1.30
2023-02-15T18:47:16.325Z,1.30
2023-02-15T18:49:53.202Z,1.20
2023-02-15T18:52:36.268Z,1.20
2023-02-15T18:55:29.263Z,1.10
2023-02-15T18:58:06.225Z,1.10
2023-02-15T19:00:43.540Z,1.00
2023-02-15T19:03:20.687Z,0.96
2023-02-15T19:05:57.385Z,0.90
2023-02-15T19:08:33.961Z,0.84
2023-02-15T19:11:16.887Z,0.80
2023-02-15T19:13:54.357Z,0.80
2023-02-15T19:16:38.447Z,0.70
2023-02-15T19:19:14.895Z,0.70
2023-02-15T19:21:52.074Z,0.60
2023-02-15T19:24:38.122Z,0.56
2023-02-15T19:27:27.435Z,0.50
2023-02-15T19:30:09.854Z,0.40
2023-02-15T19:32:47.514Z,0.40
2023-02-15T19:35:28.098Z,0.30
2023-02-15T19:38:09.866Z,0.30
2023-02-15T19:40:45.209Z,0.28
2023-02-15T19:43:26.416Z,0.20
2023-02-15T19:46:03.911Z,0.20
2023-02-15T19:48:40.350Z,0.20
2023-02-15T19:51:17.961Z,0.10
2023-02-15T19:53:55.673Z,0.10
2023-02-15T19:56:33.284Z,0.10
2023-02-15T19:59:27.152Z,0.02
2023-02-15T20:02:03.872Z,0.00
2023-02-15T20:04:40.988Z,-0.10
2023-02-15T20:07:29.436Z,-0.10
2023-02-15T20:10:14.828Z,-0.10
2023-02-15T20:12:51.829Z,-0.20
2023-02-15T20:15:32.038Z,-0.20
2023-02-15T20:18:08.992Z,-0.20
2023-02-15T20:20:50.561Z,-0.30
2023-02-15T20:23:31.656Z,-0.30
2023-02-15T20:26:18.705Z,-0.30
2023-02-15T20:28:55.503Z,-0.40
2023-02-15T20:31:33.017Z,-0.40
2023-02-15T20:34:10.019Z,-0.48
2023-02-15T20:36:46.790Z,-0.50
2023-02-15T20:39:23.750Z,-0.50
2023-02-15T20:42:00.411Z,-0.52
2023-02-15T20:44:37.562Z,-0.60
2023-02-15T20:47:14.296Z,-0.60
2023-02-15T20:49:51.466Z,-0.60
2023-02-15T20:52:27.905Z,-0.60
2023-02-15T20:55:04.604Z,-0.64
2023-02-15T20:57:41.003Z,-0.70
2023-02-15T21:00:25.713Z,-0.70
2023-02-15T21:03:12.443Z,-0.70
2023-02-15T21:05:49.821Z,-0.70
2023-02-15T21:08:28.503Z,-0.70
2023-02-15T21:11:05.653Z,-0.70
2023-02-15T21:13:43.015Z,-0.70
2023-02-15T21:16:20.367Z,-0.70
2023-02-15T21:18:56.978Z,-0.70
2023-02-15T21:21:33.431Z,-0.80
2023-02-15T21:24:16.767Z,-0.78
2023-02-15T21:26:53.991Z,-0.78
2023-02-15T21:29:32.836Z,-0.80
2023-02-15T21:32:11.043Z,-0.80
2023-02-15T21:34:48.066Z,-0.80
2023-02-15T21:37:38.025Z,-0.90
2023-02-15T21:40:30.930Z,-0.90
2023-02-15T21:43:30.285Z,-0.90
2023-02-15T21:46:34.519Z,-0.90
2023-02-15T21:49:11.455Z,-0.94
2023-02-15T21:52:05.337Z,-0.92
2023-02-15T21:54:42.001Z,-0.90
2023-02-15T21:57:22.381Z,-0.90
2023-02-15T21:59:58.853Z,-0.90
2023-02-15T22:02:36.312Z,-1.00
2023-02-15T22:05:22.442Z,-0.94
2023-02-15T22:07:58.763Z,-0.90
2023-02-15T22:10:36.691Z,-0.90
2023-02-15T22:13:22.305Z,-0.90
2023-02-15T22:15:59.778Z,-0.90
2023-02-15T22:18:37.599Z,-0.90
2023-02-15T22:21:16.671Z,-0.90
2023-02-15T22:23:52.986Z,-0.90
2023-02-15T22:26:31.297Z,-0.90
2023-02-15T22:29:08.462Z,-0.90
2023-02-15T22:31:45.255Z,-0.90
2023-02-15T22:34:34.246Z,-0.90
2023-02-15T22:37:11.850Z,-0.90
2023-02-15T22:39:50.638Z,-0.90
2023-02-15T22:42:31.003Z,-0.90
2023-02-15T22:45:08.252Z,-1.00
2023-02-15T22:47:44.874Z,-1.00
2023-02-15T22:50:26.473Z,-1.00
2023-02-15T22:53:05.126Z,-1.00
2023-02-15T22:55:43.001Z,-1.04
2023-02-15T22:58:26.166Z,-1.10
2023-02-15T23:01:03.870Z,-1.10
2023-02-15T23:03:40.605Z,-1.20
2023-02-15T23:06:18.632Z,-1.20
2023-02-15T23:08:54.909Z,-1.28
2023-02-15T23:11:31.528Z,-1.30
2023-02-15T23:14:07.853Z,-1.30
2023-02-15T23:16:44.275Z,-1.30
2023-02-15T23:19:20.838Z,-1.40
2023-02-15T23:21:57.693Z,-1.40
2023-02-15T23:24:35.628Z,-1.40
2023-02-15T23:27:36.594Z,-1.40
2023-02-15T23:30:20.111Z,-1.40
2023-02-15T23:33:02.805Z,-1.40
2023-02-15T23:35:39.046Z,-1.40
2023-02-15T23:38:31.296Z,-1.40
2023-02-15T23:41:20.934Z,-1.40
2023-02-15T23:44:05.464Z,-1.40
2023-02-15T23:46:47.239Z,-1.40
2023-02-15T23:49:24.760Z,-1.40
2023-02-15T23:52:02.113Z,-1.40
2023-02-15T23:54:38.794Z,-1.40
2023-02-15T23:57:17.484Z,-1.40
2023-02-15T23:59:54.312Z,-1.40
